Time;durP1;ratioP1;P1;durP2;ratioP2;P2;SDS_P1;SDS_P2;PMS_P1;PMS_P2;Temp;Humidity;BMP_temperature;BMP_pressure;BME280_temperature;BME280_humidity;BME280_pressure;Samples;Min_cycle;Max_cycle;Signal;HPM_P1;HPM_P2
2022/10/03 00:01:49;;;;;;;7.83;6.57;;;;;;;10.74;100.00;96361.69;4986530;28;20235;-77
2022/10/03 00:04:40;;;;;;;6.40;5.80;;;;;;;10.77;100.00;96359.63;4972949;28;20222;-78
2022/10/03 00:07:36;;;;;;;7.53;6.33;;;;;;;10.78;100.00;96370.88;4991947;28;20230;-79
2022/10/03 00:10:40;;;;;;;5.97;5.47;;;;;;;10.76;100.00;96373.59;4992351;28;20227;-79
2022/10/03 00:13:28;;;;;;;7.30;6.50;;;;;;;10.81;100.00;96373.22;4981938;28;20192;-79
2022/10/03 00:16:04;;;;;;;8.20;6.00;;;;;;;10.79;100.00;96377.72;4974186;28;20557;-78
2022/10/03 00:18:29;;;;;;;6.77;6.17;;;;;;;10.76;100.00;96375.38;4987735;28;20235;-80
2022/10/03 00:21:05;;;;;;;7.17;6.47;;;;;;;10.76;100.00;96375.38;4971146;28;20689;-79
2022/10/03 00:23:48;;;;;;;7.23;6.13;;;;;;;10.77;100.00;96375.22;4979212;28;20222;-80
2022/10/03 00:26:41;;;;;;;8.60;6.90;;;;;;;10.79;100.00;96372.53;4989042;28;20210;-79
2022/10/03 00:29:27;;;;;;;7.33;6.67;;;;;;;10.77;100.00;96380.41;4974832;28;20207;-79
2022/10/03 00:31:58;;;;;;;8.93;6.10;;;;;;;10.81;100.00;96385.38;4991070;28;20190;-79
2022/10/03 00:34:33;;;;;;;7.97;6.23;;;;;;;10.72;100.00;96405.16;4962846;28;20296;-79
2022/10/03 00:37:20;;;;;;;8.23;6.33;;;;;;;10.70;100.00;96399.28;4965608;28;20211;-79
2022/10/03 00:40:23;;;;;;;8.17;6.50;;;;;;;10.76;100.00;96393.53;4989485;28;20273;-80
2022/10/03 00:43:00;;;;;;;22.10;8.37;;;;;;;10.77;100.00;96390.81;4987934;28;20184;-80
2022/10/03 00:45:39;;;;;;;14.53;8.43;;;;;;;10.66;100.00;96395.28;4992880;28;20183;-78
2022/10/03 00:48:28;;;;;;;22.00;8.20;;;;;;;10.68;100.00;96399.38;4988472;28;20204;-79
2022/10/03 00:51:04;;;;;;;12.43;8.57;;;;;;;10.72;100.00;96410.34;4990432;28;20172;-79
2022/10/03 00:53:42;;;;;;;13.50;7.73;;;;;;;10.67;100.00;96409.91;4991137;28;20566;-79
2022/10/03 00:56:38;;;;;;;9.57;7.40;;;;;;;10.71;100.00;96413.91;4970511;28;20182;-79
2022/10/03 00:59:28;;;;;;;11.07;7.07;;;;;;;10.69;100.00;96408.84;4990844;28;20206;-80
2022/10/03 01:01:54;;;;;;;8.50;6.60;;;;;;;10.74;100.00;96403.25;4967347;28;20196;-79
2022/10/03 01:04:29;;;;;;;10.47;6.97;;;;;;;10.73;100.00;96401.59;4971864;28;21119;-80
2022/10/03 01:07:09;;;;;;;8.53;5.90;;;;;;;10.67;100.00;96396.91;4990631;28;20203;-78
2022/10/03 01:10:15;;;;;;;8.10;6.43;;;;;;;10.69;100.00;96395.00;4972473;28;20263;-78
2022/10/03 01:13:16;;;;;;;7.83;6.90;;;;;;;10.73;100.00;96404.22;4986549;28;20204;-78
2022/10/03 01:15:48;;;;;;;7.60;6.83;;;;;;;10.69;100.00;96410.59;4984411;28;20253;-78
2022/10/03 01:18:53;;;;;;;8.63;7.13;;;;;;;10.71;100.00;96419.94;4976036;28;20690;-78
2022/10/03 01:21:20;;;;;;;9.07;7.23;;;;;;;10.64;100.00;96415.34;4952515;28;20343;-77
2022/10/03 01:24:16;;;;;;;8.60;7.20;;;;;;;10.55;100.00;96410.91;4982535;28;20560;-78
2022/10/03 01:26:57;;;;;;;8.53;6.57;;;;;;;10.46;100.00;96402.94;4986816;28;20203;-77
2022/10/03 01:32:14;;;;;;;7.23;6.53;;;;;;;10.35;100.00;96413.38;4982359;28;20211;-78
2022/10/03 01:34:47;;;;;;;7.53;6.60;;;;;;;10.36;100.00;96420.22;4989702;28;20235;-78
2022/10/03 01:37:28;;;;;;;7.07;6.03;;;;;;;10.36;100.00;96429.78;4991868;28;20693;-77
2022/10/03 01:40:19;;;;;;;7.80;7.03;;;;;;;10.42;100.00;96426.66;4991704;28;20192;-77
2022/10/03 01:43:08;;;;;;;8.53;7.63;;;;;;;10.44;100.00;96430.81;4953335;28;20179;-78
2022/10/03 01:45:46;;;;;;;8.80;7.40;;;;;;;10.44;100.00;96440.38;4983766;28;20659;-78
2022/10/03 01:48:27;;;;;;;8.93;7.47;;;;;;;10.44;100.00;96441.19;4980615;28;20238;-77
2022/10/03 01:51:15;;;;;;;8.73;6.97;;;;;;;10.44;100.00;96441.19;4975412;28;20185;-79
2022/10/03 01:53:53;;;;;;;7.40;6.23;;;;;;;10.43;100.00;96438.72;4992586;28;20192;-78
2022/10/03 01:56:33;;;;;;;11.47;6.60;;;;;;;10.45;100.00;96442.84;4991273;28;20341;-77
2022/10/03 01:59:13;;;;;;;8.70;6.73;;;;;;;10.45;100.00;96449.81;4988341;28;20211;-78
2022/10/03 02:01:48;;;;;;;9.47;6.30;;;;;;;10.46;100.00;96441.06;4991333;28;20196;-77
2022/10/03 02:04:41;;;;;;;8.00;6.73;;;;;;;10.50;100.00;96445.88;4991826;28;20175;-78
2022/10/03 02:07:22;;;;;;;9.13;6.93;;;;;;;10.50;100.00;96445.88;4994296;28;20219;-78
2022/10/03 02:10:08;;;;;;;11.97;7.37;;;;;;;10.52;100.00;96450.16;4977358;28;20210;-78
2022/10/03 02:12:40;;;;;;;7.77;5.80;;;;;;;10.48;100.00;96439.97;4976272;28;20251;-78
2022/10/03 02:15:30;;;;;;;7.90;5.63;;;;;;;10.54;100.00;96440.44;4976055;28;20215;-79
2022/10/03 02:18:17;;;;;;;11.00;6.47;;;;;;;10.50;100.00;96448.47;4976900;28;20258;-79
2022/10/03 02:20:47;;;;;;;7.60;5.73;;;;;;;10.47;100.00;96446.13;4991574;28;20217;-79
2022/10/03 02:23:37;;;;;;;8.00;6.40;;;;;;;10.44;100.00;96446.38;4978474;28;20244;-78
2022/10/03 02:26:30;;;;;;;6.50;5.90;;;;;;;10.42;100.00;96458.69;4990283;28;20212;-79
2022/10/03 02:29:14;;;;;;;7.70;6.50;;;;;;;10.42;100.00;96455.22;4986149;28;20186;-78
2022/10/03 02:32:19;;;;;;;8.97;6.83;;;;;;;10.45;100.00;96455.00;4995006;28;20264;-80
2022/10/03 02:35:06;;;;;;;10.00;7.13;;;;;;;10.43;100.00;96455.13;4977144;28;20204;-79
2022/10/03 02:38:00;;;;;;;10.63;6.97;;;;;;;10.45;100.00;96450.63;4995127;28;20204;-79
2022/10/03 02:40:37;;;;;;;8.13;6.07;;;;;;;10.41;100.00;96453.59;4981714;28;20287;-80
2022/10/03 02:43:40;;;;;;;10.13;6.67;;;;;;;10.39;100.00;96452.91;4987395;28;20186;-79
2022/10/03 02:46:22;;;;;;;10.77;6.40;;;;;;;10.31;100.00;96450.09;4977617;28;20211;-78
2022/10/03 02:49:03;;;;;;;9.77;6.53;;;;;;;10.22;100.00;96446.47;4983771;28;20231;-79
2022/10/03 02:52:04;;;;;;;7.33;6.30;;;;;;;10.17;100.00;96439.03;4960857;28;20192;-79
2022/10/03 02:54:48;;;;;;;7.50;6.57;;;;;;;10.12;100.00;96445.53;4973268;28;20546;-79
2022/10/03 02:57:38;;;;;;;10.10;6.73;;;;;;;10.13;100.00;96442.81;4985045;28;20228;-79
2022/10/03 03:00:51;;;;;;;9.67;6.90;;;;;;;10.08;100.00;96436.34;4991461;28;20618;-78
2022/10/03 03:03:31;;;;;;;8.37;6.90;;;;;;;10.06;100.00;96435.63;4991237;28;20183;-79
2022/10/03 03:06:22;;;;;;;10.63;6.97;;;;;;;10.04;100.00;96430.56;4976731;28;20202;-77
2022/10/03 03:08:51;;;;;;;10.60;6.60;;;;;;;9.99;100.00;96430.13;4973550;28;20179;-79
2022/10/03 03:11:40;;;;;;;11.97;6.73;;;;;;;9.98;100.00;96427.63;4989536;28;20226;-79
2022/10/03 03:14:11;;;;;;;8.63;7.23;;;;;;;9.91;100.00;96433.31;4987105;28;20697;-80
2022/10/03 03:16:49;;;;;;;10.53;7.60;;;;;;;9.82;100.00;96426.28;4981389;28;20208;-79
2022/10/03 03:19:44;;;;;;;16.97;7.73;;;;;;;9.79;100.00;96429.09;4979042;28;20219;-80
2022/10/03 03:22:47;;;;;;;9.33;8.20;;;;;;;9.75;100.00;96437.25;4980127;28;20195;-78
2022/10/03 03:25:23;;;;;;;14.27;8.13;;;;;;;9.61;100.00;96425.34;4990261;28;20634;-78
2022/10/03 03:28:08;;;;;;;13.33;8.30;;;;;;;9.57;100.00;96421.38;4969103;28;20233;-78
2022/10/03 03:30:39;;;;;;;12.77;9.07;;;;;;;9.51;100.00;96430.44;4987111;28;20184;-78
2022/10/03 03:33:22;;;;;;;12.07;10.03;;;;;;;9.46;100.00;96423.97;4991288;28;20184;-78
2022/10/03 03:35:47;;;;;;;11.90;8.47;;;;;;;9.39;100.00;96417.63;4992599;28;20234;-78
2022/10/03 03:38:40;;;;;;;13.30;8.13;;;;;;;9.37;100.00;96420.31;4993275;28;20235;-77
2022/10/03 03:41:43;;;;;;;11.37;8.73;;;;;;;9.28;100.00;96419.28;4987802;28;20246;-77
2022/10/03 03:44:27;;;;;;;10.63;8.00;;;;;;;9.22;100.00;96419.72;4975550;28;20235;-77
2022/10/03 03:47:06;;;;;;;12.83;9.10;;;;;;;9.15;100.00;96428.91;4988589;28;20251;-77
2022/10/03 03:49:59;;;;;;;14.50;7.87;;;;;;;9.06;100.00;96434.78;4977655;28;20187;-76
2022/10/03 03:52:44;;;;;;;10.63;8.33;;;;;;;9.01;100.00;96437.75;4991203;28;20180;-79
2022/10/03 03:55:45;;;;;;;14.43;8.27;;;;;;;8.97;100.00;96435.50;4982104;28;20215;-78
2022/10/03 03:58:38;;;;;;;10.23;8.40;;;;;;;8.91;100.00;96435.94;4986931;28;20229;-77
2022/10/03 04:01:34;;;;;;;14.27;8.47;;;;;;;8.86;100.00;96438.91;4967092;28;20234;-78
2022/10/03 04:04:15;;;;;;;14.50;7.83;;;;;;;8.80;100.00;96442.75;4991256;28;20183;-78
2022/10/03 04:07:07;;;;;;;12.40;8.03;;;;;;;8.77;100.00;96429.22;4959805;28;20207;-79
2022/10/03 04:09:58;;;;;;;10.17;7.40;;;;;;;8.74;100.00;96435.44;4989457;28;20184;-76
2022/10/03 04:12:39;;;;;;;10.53;8.00;;;;;;;8.72;100.00;96442.50;4983090;28;20740;-77
2022/10/03 04:15:15;;;;;;;10.93;8.57;;;;;;;8.75;100.00;96444.06;4986898;28;20228;-78
2022/10/03 04:21:40;;;;;;;9.60;7.67;;;;;;;8.79;100.00;96435.94;4991475;28;20231;-78
2022/10/03 04:24:05;;;;;;;11.43;7.83;;;;;;;8.78;100.00;96444.66;4979542;28;20534;-77
2022/10/03 04:26:48;;;;;;;20.63;11.23;;;;;;;8.84;100.00;96450.31;4981165;28;20308;-77
2022/10/03 04:29:39;;;;;;;28.23;16.87;;;;;;;8.90;100.00;96449.84;4984196;28;20223;-77
2022/10/03 04:32:30;;;;;;;60.43;44.03;;;;;;;8.96;100.00;96442.44;4994022;28;20231;-78
2022/10/03 04:35:31;;;;;;;60.43;41.67;;;;;;;8.97;100.00;96451.03;5010937;28;20362;-78
2022/10/03 04:37:59;;;;;;;38.63;31.20;;;;;;;8.99;100.00;96457.75;4956296;28;20249;-78
2022/10/03 04:40:47;;;;;;;30.93;24.10;;;;;;;9.07;100.00;96457.19;4985638;28;20184;-78
2022/10/03 04:44:03;;;;;;;22.83;14.37;;;;;;;9.01;100.00;96462.81;4976756;28;20192;-79
2022/10/03 04:46:41;;;;;;;16.57;12.63;;;;;;;8.96;100.00;96451.97;4961208;28;20276;-78
2022/10/03 04:49:27;;;;;;;21.47;11.70;;;;;;;8.93;100.00;96458.22;4943703;28;20201;-79
2022/10/03 04:52:05;;;;;;;16.00;10.53;;;;;;;8.91;100.00;96461.84;4955742;28;20189;-79
2022/10/03 04:55:12;;;;;;;17.47;10.43;;;;;;;8.92;100.00;96468.69;4953308;28;20208;-78
2022/10/03 04:57:51;;;;;;;18.10;10.13;;;;;;;8.97;100.00;96461.41;4956600;28;20220;-78
2022/10/03 05:00:29;;;;;;;19.40;12.63;;;;;;;9.04;100.00;96468.59;4945919;28;20192;-79
2022/10/03 05:03:05;;;;;;;26.57;13.97;;;;;;;9.07;100.00;96460.59;4941974;28;20256;-78
2022/10/03 05:05:42;;;;;;;19.77;13.10;;;;;;;9.18;100.00;96467.53;4937719;28;20177;-78
2022/10/03 05:08:41;;;;;;;24.77;13.97;;;;;;;9.26;100.00;96462.59;4940307;28;20281;-78
2022/10/03 05:11:12;;;;;;;20.50;13.40;;;;;;;9.30;100.00;96469.22;4929275;28;20189;-78
2022/10/03 05:13:53;;;;;;;27.60;14.63;;;;;;;9.34;100.00;96473.22;4964223;28;20195;-77
2022/10/03 05:16:36;;;;;;;24.70;14.83;;;;;;;9.42;100.00;96472.63;4950927;28;20192;-77
2022/10/03 05:19:23;;;;;;;23.50;14.57;;;;;;;9.47;100.00;96469.69;4956055;28;20272;-77
2022/10/03 05:21:57;;;;;;;28.73;14.67;;;;;;;9.47;100.00;96472.28;4947354;28;20573;-78
2022/10/03 05:24:33;;;;;;;30.60;16.13;;;;;;;9.48;100.00;96481.72;4982060;28;20203;-78
2022/10/03 05:27:18;;;;;;;29.00;16.93;;;;;;;9.53;100.00;96474.38;4969347;28;20208;-79
2022/10/03 05:30:09;;;;;;;23.97;16.50;;;;;;;9.56;100.00;96490.56;4986231;28;20559;-78
2022/10/03 05:32:53;;;;;;;28.00;17.17;;;;;;;9.50;100.00;96495.38;4982091;28;20208;-77
2022/10/03 05:35:27;;;;;;;32.67;16.67;;;;;;;9.60;100.00;96497.13;4995894;28;20211;-76
2022/10/03 05:38:08;;;;;;;30.57;18.00;;;;;;;9.63;100.00;96501.28;4994243;28;20218;-77
2022/10/03 05:40:36;;;;;;;30.87;17.30;;;;;;;9.64;100.00;96502.94;4989977;28;20191;-78
2022/10/03 05:43:27;;;;;;;36.50;18.47;;;;;;;9.69;100.00;96513.75;4970606;28;20642;-79
2022/10/03 05:46:35;;;;;;;30.03;18.87;;;;;;;9.74;100.00;96511.66;4975691;28;20172;-77
2022/10/03 05:49:15;;;;;;;30.00;19.13;;;;;;;9.77;100.00;96513.16;4996057;28;20183;-78
2022/10/03 05:52:11;;;;;;;34.67;18.20;;;;;;;9.63;100.00;96514.25;4984569;28;20176;-79
2022/10/03 05:55:00;;;;;;;26.10;18.67;;;;;;;9.66;100.00;96511.41;4976899;28;20265;-78
2022/10/03 05:57:48;;;;;;;34.10;19.57;;;;;;;9.79;100.00;96513.88;4962240;28;20219;-78
2022/10/03 06:00:22;;;;;;;41.07;21.70;;;;;;;9.79;100.00;96509.50;4950144;28;20223;-78
2022/10/03 06:03:02;;;;;;;33.83;20.27;;;;;;;9.83;100.00;96510.94;4977373;28;20176;-79
2022/10/03 06:05:44;;;;;;;33.30;18.07;;;;;;;9.78;100.00;96517.41;4994478;28;20172;-77
2022/10/03 06:08:41;;;;;;;27.77;17.37;;;;;;;9.85;100.00;96521.19;4978632;28;20208;-78
2022/10/03 06:11:25;;;;;;;34.17;18.60;;;;;;;9.86;100.00;96521.06;4965799;28;20262;-77
2022/10/03 06:14:10;;;;;;;25.27;17.03;;;;;;;9.93;100.00;96516.22;4986662;28;20199;-78
2022/10/03 06:17:12;;;;;;;31.07;18.20;;;;;;;9.91;100.00;96531.91;4975187;28;20212;-77
2022/10/03 06:20:11;;;;;;;31.03;19.07;;;;;;;9.96;100.00;96531.53;4994681;28;20175;-77
2022/10/03 06:23:04;;;;;;;36.20;20.77;;;;;;;10.05;100.00;96530.81;4993904;28;20192;-79
2022/10/03 06:26:12;;;;;;;33.67;19.20;;;;;;;10.03;100.00;96530.13;4977263;28;20188;-78
2022/10/03 06:29:07;;;;;;;36.17;20.30;;;;;;;10.09;100.00;96534.03;4965080;28;20295;-78
2022/10/03 06:31:49;;;;;;;35.17;20.13;;;;;;;10.13;100.00;96530.22;4977101;28;20199;-77
2022/10/03 06:34:52;;;;;;;33.73;19.40;;;;;;;10.20;100.00;96536.59;4981838;28;20193;-78
2022/10/03 06:37:36;;;;;;;36.70;20.97;;;;;;;10.21;100.00;96541.66;4992269;28;20240;-77
2022/10/03 06:40:27;;;;;;;39.30;20.40;;;;;;;10.19;100.00;96547.91;4968656;28;20231;-78
2022/10/03 06:43:10;;;;;;;31.87;19.80;;;;;;;10.16;100.00;96550.78;4975320;28;20259;-78
2022/10/03 06:45:46;;;;;;;35.90;18.90;;;;;;;10.21;100.00;96561.59;4980073;28;20184;-77
2022/10/03 06:48:30;;;;;;;27.70;18.33;;;;;;;10.17;100.00;96561.03;4992455;28;20203;-78
2022/10/03 06:51:30;;;;;;;32.67;18.13;;;;;;;10.21;100.00;96565.00;4976690;28;20215;-77
2022/10/03 06:54:21;;;;;;;32.07;20.00;;;;;;;10.24;100.00;96563.16;4947850;28;20215;-76
2022/10/03 06:57:21;;;;;;;35.00;19.43;;;;;;;10.29;100.00;96567.03;4948618;28;20223;-77
2022/10/03 07:00:17;;;;;;;33.60;19.43;;;;;;;10.35;100.00;96576.13;4965138;28;20192;-78
2022/10/03 07:03:15;;;;;;;33.97;19.50;;;;;;;10.35;100.00;96574.34;4976568;28;20244;-78
2022/10/03 07:06:10;;;;;;;32.17;20.30;;;;;;;10.34;100.00;96575.31;4994644;28;20198;-77
2022/10/03 07:09:13;;;;;;;31.97;19.40;;;;;;;10.27;100.00;96570.72;4979695;28;20208;-78
2022/10/03 07:12:05;;;;;;;30.67;19.03;;;;;;;10.39;100.00;96577.53;4976938;28;20557;-77
2022/10/03 07:14:49;;;;;;;32.47;19.93;;;;;;;10.33;100.00;96573.63;4985531;28;20702;-78
2022/10/03 07:17:48;;;;;;;33.07;20.97;;;;;;;10.32;100.00;96581.53;4985828;28;20218;-77
2022/10/03 07:20:51;;;;;;;30.43;20.33;;;;;;;10.36;100.00;96577.78;4993366;28;20199;-78
2022/10/03 07:23:31;;;;;;;30.50;20.20;;;;;;;10.53;100.00;96581.63;4987702;28;20266;-78
2022/10/03 07:26:34;;;;;;;32.73;20.00;;;;;;;10.54;100.00;96581.50;4992511;28;20194;-77
2022/10/03 07:29:40;;;;;;;32.00;19.07;;;;;;;10.69;100.00;96587.22;4990319;28;20203;-78
2022/10/03 07:32:33;;;;;;;35.40;19.00;;;;;;;10.75;100.00;96590.19;4975872;28;20204;-78
2022/10/03 07:38:57;;;;;;;30.77;19.80;;;;;;;10.75;100.00;96589.34;4995876;28;20273;-78
2022/10/03 07:41:48;;;;;;;29.57;18.47;;;;;;;10.76;100.00;96598.78;4989897;28;20191;-78
2022/10/03 07:44:50;;;;;;;23.93;17.93;;;;;;;10.96;100.00;96598.03;4975107;28;20176;-79
2022/10/03 07:47:53;;;;;;;25.47;17.80;;;;;;;11.19;100.00;96605.72;4962699;28;20203;-78
2022/10/03 07:50:43;;;;;;;31.20;18.07;;;;;;;10.66;98.94;96610.88;4986842;28;20704;-77
2022/10/03 07:53:15;;;;;;;25.50;17.77;;;;;;;10.84;99.42;96609.41;4989573;28;20644;-78
2022/10/03 07:56:01;;;;;;;22.60;17.10;;;;;;;11.01;98.82;96606.25;4986138;28;20914;-78
2022/10/03 07:58:36;;;;;;;29.10;16.77;;;;;;;11.11;97.92;96602.91;4986553;28;20208;-78
2022/10/03 08:01:18;;;;;;;23.83;16.63;;;;;;;11.31;97.22;96595.16;4987340;28;20562;-77
2022/10/03 08:04:08;;;;;;;24.87;16.07;;;;;;;11.06;93.82;96603.31;4977817;28;20195;-78
2022/10/03 08:06:42;;;;;;;17.63;13.40;;;;;;;11.13;91.56;96607.06;4990180;28;20606;-78
2022/10/03 08:09:45;;;;;;;22.40;15.10;;;;;;;11.01;93.92;96603.66;4971867;28;20283;-77
2022/10/03 08:12:32;;;;;;;22.47;15.00;;;;;;;11.12;92.52;96602.78;4995647;28;20190;-78
2022/10/03 08:15:29;;;;;;;22.30;14.50;;;;;;;11.30;93.63;96606.47;4992651;28;20238;-77
2022/10/03 08:18:00;;;;;;;26.40;17.50;;;;;;;11.28;94.63;96612.75;4971630;28;20226;-78
2022/10/03 08:20:47;;;;;;;32.83;17.20;;;;;;;10.80;95.94;96614.97;4971234;28;20180;-77
2022/10/03 08:23:37;;;;;;;28.10;18.47;;;;;;;10.92;97.69;96607.00;4973961;28;20273;-77
2022/10/03 08:26:06;;;;;;;27.63;16.93;;;;;;;11.16;96.34;96609.41;4971141;28;20182;-77
2022/10/03 08:28:47;;;;;;;29.33;16.00;;;;;;;11.15;94.40;96612.97;5003839;28;20246;-78
2022/10/03 08:31:23;;;;;;;23.00;14.93;;;;;;;11.41;88.04;96610.81;4990031;28;20242;-78
2022/10/03 08:34:01;;;;;;;25.37;16.00;;;;;;;11.51;89.98;96619.50;4993860;28;20179;-79
2022/10/03 08:36:57;;;;;;;21.80;15.73;;;;;;;11.48;89.67;96617.13;4982226;28;20188;-78
2022/10/03 08:40:00;;;;;;;23.13;13.87;;;;;;;11.63;88.60;96615.88;4975838;28;20218;-78
2022/10/03 08:42:44;;;;;;;20.60;13.73;;;;;;;12.07;86.65;96616.53;4985627;28;20191;-80
2022/10/03 08:45:35;;;;;;;17.17;13.03;;;;;;;12.24;84.80;96611.69;4977970;28;20201;-80
2022/10/03 08:48:29;;;;;;;19.43;12.77;;;;;;;12.11;85.45;96617.94;4974023;28;20267;-80
2022/10/03 08:51:07;;;;;;;20.53;13.50;;;;;;;12.09;86.25;96614.63;4967883;28;20680;-81
2022/10/03 08:53:47;;;;;;;21.67;13.83;;;;;;;11.75;87.64;96621.00;4968443;28;20240;-80
2022/10/03 08:56:27;;;;;;;25.37;14.70;;;;;;;11.94;86.10;96613.34;4975597;28;20287;-80
2022/10/03 08:59:13;;;;;;;20.53;14.33;;;;;;;12.25;86.79;96624.56;4990828;28;20250;-79
2022/10/03 09:02:05;;;;;;;17.93;13.50;;;;;;;12.24;86.63;96624.69;4993357;28;20188;-79
2022/10/03 09:04:52;;;;;;;19.73;14.57;;;;;;;12.53;86.96;96625.59;4992619;28;20283;-78
2022/10/03 09:07:20;;;;;;;22.07;15.40;;;;;;;12.77;87.33;96620.03;5004841;28;20247;-78
2022/10/03 09:09:52;;;;;;;22.57;13.77;;;;;;;13.04;85.50;96614.16;5005298;28;20238;-79
2022/10/03 09:12:48;;;;;;;20.67;15.82;;;;;;;13.35;84.20;96616.69;4994662;28;20428;-79
2022/10/03 09:15:38;;;;;;;19.80;12.87;;;;;;;13.11;83.93;96614.44;4989725;28;20344;-79
2022/10/03 09:18:43;;;;;;;23.20;13.50;;;;;;;13.13;81.84;96615.13;4987705;28;20684;-81
2022/10/03 09:21:43;;;;;;;17.60;13.60;;;;;;;13.38;80.60;96611.16;4971266;28;20227;-79
2022/10/03 09:24:26;;;;;;;20.63;14.33;;;;;;;13.74;79.13;96615.63;4984002;28;20184;-78
2022/10/03 09:27:29;;;;;;;20.60;12.90;;;;;;;14.11;77.79;96613.03;4987662;28;20210;-78
2022/10/03 09:29:57;;;;;;;17.37;12.70;;;;;;;13.89;79.00;96603.78;4988284;28;20198;-78
2022/10/03 09:32:55;;;;;;;18.60;13.67;;;;;;;12.87;83.31;96609.63;4988139;28;20277;-79
2022/10/03 09:35:39;;;;;;;20.30;14.20;;;;;;;12.91;84.03;96608.41;4972641;28;20257;-78
2022/10/03 09:38:38;;;;;;;20.77;14.40;;;;;;;12.72;84.83;96606.56;4968735;28;20224;-77
2022/10/03 09:41:31;;;;;;;23.90;13.93;;;;;;;12.39;84.87;96610.34;4982542;28;20177;-78
2022/10/03 09:44:08;;;;;;;22.60;14.77;;;;;;;12.34;85.03;96608.13;4983191;28;20273;-77
2022/10/03 09:47:28;;;;;;;21.43;14.07;;;;;;;12.13;88.19;96604.78;4953262;28;20238;-77
2022/10/03 09:50:18;;;;;;;23.53;13.80;;;;;;;12.03;88.01;96604.75;4896024;29;20615;-78
2022/10/03 09:53:17;;;;;;;19.40;14.20;;;;;;;12.56;85.91;96603.69;4916080;29;20193;-78
2022/10/03 09:56:03;;;;;;;19.30;15.00;;;;;;;12.35;86.95;96608.97;4877601;29;20214;-77
2022/10/03 09:59:00;;;;;;;21.20;13.30;;;;;;;12.55;84.08;96602.88;4908991;29;20225;-78
2022/10/03 10:01:49;;;;;;;20.60;14.27;;;;;;;12.57;85.02;96602.72;4906987;29;20182;-78
2022/10/03 10:04:43;;;;;;;20.07;13.27;;;;;;;12.67;84.06;96600.97;4905371;29;20190;-77
2022/10/03 10:07:45;;;;;;;18.57;13.00;;;;;;;12.70;82.91;96611.91;4887242;29;20215;-77
2022/10/03 10:10:36;;;;;;;20.70;12.60;;;;;;;12.89;83.81;96603.31;4901974;29;20210;-76
2022/10/03 10:13:14;;;;;;;17.77;12.93;;;;;;;13.05;82.57;96605.38;4910177;29;20199;-78
2022/10/03 10:15:59;;;;;;;18.20;13.57;;;;;;;13.18;82.64;96603.31;4903065;29;20226;-77
2022/10/03 10:18:34;;;;;;;17.60;12.73;;;;;;;13.56;80.25;96612.09;4898435;29;20631;-78
2022/10/03 10:21:25;;;;;;;13.23;9.97;;;;;;;13.65;78.49;96608.66;4926522;29;20634;-77
2022/10/03 10:24:06;;;;;;;20.17;11.00;;;;;;;13.69;76.76;96609.19;4940249;28;20260;-77
2022/10/03 10:26:49;;;;;;;15.33;10.43;;;;;;;13.68;75.69;96612.75;4989291;28;20277;-77
2022/10/03 10:29:26;;;;;;;16.23;10.77;;;;;;;13.78;76.80;96611.78;4975411;28;20681;-77
2022/10/03 10:32:20;;;;;;;15.40;10.40;;;;;;;13.64;76.00;96614.03;4988757;28;20234;-77
2022/10/03 10:35:02;;;;;;;15.53;10.73;;;;;;;13.59;75.93;96612.63;4987967;28;20209;-78
2022/10/03 10:40:36;;;;;;;18.13;9.30;;;;;;;13.22;75.98;96615.16;5100236;27;20554;-78
2022/10/03 10:43:20;;;;;;;11.30;8.70;;;;;;;13.25;75.66;96612.28;5095279;28;20562;-78
2022/10/03 10:45:55;;;;;;;14.27;8.63;;;;;;;13.23;75.52;96606.38;5089286;28;20338;-79
2022/10/03 10:48:24;;;;;;;10.67;8.80;;;;;;;13.49;75.82;96606.63;5091577;28;20295;-79
2022/10/03 10:51:07;;;;;;;12.83;8.57;;;;;;;13.69;73.97;96606.56;5090175;28;20279;-80
2022/10/03 10:54:31;;;;;;;12.23;7.63;;;;;;;13.79;73.41;96604.78;5082818;28;20306;-79
2022/10/03 10:57:17;;;;;;;12.20;7.93;;;;;;;14.01;72.62;96601.00;5072284;28;20208;-80
2022/10/03 11:00:00;;;;;;;13.50;7.40;;;;;;;14.11;72.29;96601.78;5038801;28;20246;-79
2022/10/03 11:02:32;;;;;;;12.60;7.93;;;;;;;14.19;72.43;96604.50;5039360;28;20527;-78
2022/10/03 11:05:38;;;;;;;11.20;8.53;;;;;;;13.89;73.13;96598.56;5050793;28;20204;-78
2022/10/03 11:08:22;;;;;;;11.43;8.60;;;;;;;13.47;75.43;96600.72;5043714;28;20231;-79
2022/10/03 11:10:53;;;;;;;15.00;9.60;;;;;;;12.97;78.04;96605.22;5059382;28;20232;-81
2022/10/03 11:13:43;;;;;;;15.07;10.00;;;;;;;12.89;78.77;96607.69;5073837;28;20289;-79
2022/10/03 11:16:27;;;;;;;18.37;10.10;;;;;;;12.69;80.11;96602.47;5086471;28;20220;-78
2022/10/03 11:19:19;;;;;;;17.13;10.30;;;;;;;13.16;78.69;96607.84;5067329;28;20220;-79
2022/10/03 11:22:17;;;;;;;12.53;9.37;;;;;;;13.45;77.28;96599.22;5038689;28;20288;-79
2022/10/03 11:25:23;;;;;;;13.07;9.33;;;;;;;13.12;78.10;96605.66;5075131;28;20703;-79
2022/10/03 11:27:51;;;;;;;10.67;8.47;;;;;;;13.27;76.11;96609.53;5054314;28;20204;-79
2022/10/03 11:30:59;;;;;;;10.83;7.87;;;;;;;13.45;74.10;96607.03;5074532;28;20202;-78
2022/10/03 11:33:45;;;;;;;13.33;8.63;;;;;;;13.33;74.20;96608.97;5090722;28;20195;-79
2022/10/03 11:36:29;;;;;;;18.40;9.27;;;;;;;13.32;76.14;96610.75;5092856;28;20567;-79
2022/10/03 11:39:01;;;;;;;15.67;8.50;;;;;;;13.11;75.96;96604.00;5081635;28;20215;-78
2022/10/03 11:41:40;;;;;;;11.77;9.00;;;;;;;12.88;76.79;96601.66;5102887;28;20188;-78
2022/10/03 11:44:24;;;;;;;11.80;8.57;;;;;;;12.92;76.09;96602.22;5081691;28;20192;-79
2022/10/03 11:47:12;;;;;;;16.23;10.43;;;;;;;12.87;76.66;96599.19;5107849;28;20203;-77
2022/10/03 11:49:49;;;;;;;9.87;8.00;;;;;;;12.98;76.56;96596.44;5088185;28;20185;-79
2022/10/03 11:52:41;;;;;;;11.50;7.83;;;;;;;13.10;77.20;96602.38;5084343;28;20188;-79
2022/10/03 11:55:21;;;;;;;13.13;7.27;;;;;;;13.15;72.71;96592.34;5081481;28;20185;-78
2022/10/03 11:58:03;;;;;;;13.00;7.00;;;;;;;13.19;72.23;96591.97;5092890;28;20212;-78
2022/10/03 12:00:32;;;;;;;13.93;7.20;;;;;;;13.52;68.72;96587.25;5096250;28;20253;-78
2022/10/03 12:03:26;;;;;;;9.63;6.10;;;;;;;14.01;67.11;96587.94;5093579;28;20511;-78
2022/10/03 12:09:13;;;;;;;10.53;6.83;;;;;;;14.28;70.10;96577.50;5085934;28;20976;-79
2022/10/03 12:11:57;;;;;;;9.00;7.33;;;;;;;14.20;70.25;96587.84;5090236;28;20232;-78
2022/10/03 12:14:25;;;;;;;11.30;6.60;;;;;;;13.64;70.94;96593.97;5057013;28;20193;-79
2022/10/03 12:17:04;;;;;;;15.03;8.97;;;;;;;13.77;72.29;96583.19;5059190;28;20213;-79
2022/10/03 12:19:55;;;;;;;11.43;6.90;;;;;;;14.04;70.95;96585.03;5080868;28;20196;-79
2022/10/03 12:22:28;;;;;;;11.17;6.50;;;;;;;13.46;71.83;96580.00;5086128;28;20192;-78
2022/10/03 12:25:01;;;;;;;11.70;6.93;;;;;;;13.51;73.32;96580.38;5067379;28;20291;-79
2022/10/03 12:27:45;;;;;;;10.57;6.93;;;;;;;13.73;73.52;96574.00;5076819;28;20258;-79
2022/10/03 12:30:16;;;;;;;10.17;6.87;;;;;;;13.77;72.46;96573.56;5094631;28;20199;-78
2022/10/03 12:33:04;;;;;;;7.47;6.70;;;;;;;13.01;74.72;96573.53;5093519;28;20231;-78
2022/10/03 12:35:39;;;;;;;8.87;6.53;;;;;;;13.42;73.12;96568.16;5088676;28;20199;-78
2022/10/03 12:38:32;;;;;;;11.37;6.17;;;;;;;13.68;71.75;96566.59;5082054;28;20216;-78
2022/10/03 12:41:17;;;;;;;11.57;6.60;;;;;;;13.92;70.74;96563.50;5080475;28;20192;-79
2022/10/03 12:43:48;;;;;;;12.47;6.27;;;;;;;14.15;71.62;96559.56;5076701;28;20280;-78
2022/10/03 12:46:30;;;;;;;12.57;6.37;;;;;;;14.33;70.20;96566.63;5083495;28;20188;-79
2022/10/03 12:49:05;;;;;;;8.30;5.97;;;;;;;14.43;67.92;96560.38;5073604;28;20199;-78
2022/10/03 12:51:51;;;;;;;9.80;5.77;;;;;;;14.51;66.73;96558.84;5086008;28;20192;-78
2022/10/03 12:54:44;;;;;;;11.83;6.27;;;;;;;14.02;66.10;96548.63;5080918;28;20189;-78
2022/10/03 12:57:37;;;;;;;11.43;5.40;;;;;;;14.16;63.57;96550.75;5060593;28;20221;-78
2022/10/03 13:00:21;;;;;;;8.23;5.30;;;;;;;14.23;65.58;96552.78;5077489;28;20209;-79
2022/10/03 13:03:16;;;;;;;12.87;4.70;;;;;;;14.24;63.77;96551.81;5076975;28;20235;-79